sensor_id;sensor_type;location;lat;lon;timestamp;pressure;altitude;pressure_sealevel;temperature;humidity
43818;BME280;29868;47.360;18.984;2022-12-08T00:00:17;100289.34;;;-0.90;100.00
43818;BME280;29868;47.360;18.984;2022-12-08T00:02:43;100280.97;;;-0.88;100.00
43818;BME280;29868;47.360;18.984;2022-12-08T00:05:08;100288.47;;;-0.91;100.00
43818;BME280;29868;47.360;18.984;2022-12-08T00:07:52;100279.03;;;-0.92;100.00
43818;BME280;29868;47.360;18.984;2022-12-08T00:10:36;100281.72;;;-1.04;100.00
43818;BME280;29868;47.360;18.984;2022-12-08T00:13:01;100278.72;;;-1.11;100.00
43818;BME280;29868;47.360;18.984;2022-12-08T00:15:26;100276.16;;;-1.11;100.00
43818;BME280;29868;47.360;18.984;2022-12-08T00:17:52;100280.38;;;-1.12;100.00
43818;BME280;29868;47.360;18.984;2022-12-08T00:20:17;100282.84;;;-1.13;100.00
43818;BME280;29868;47.360;18.984;2022-12-08T00:22:42;100291.00;;;-1.19;100.00
43818;BME280;29868;47.360;18.984;2022-12-08T00:25:07;100275.97;;;-1.14;100.00
43818;BME280;29868;47.360;18.984;2022-12-08T00:27:33;100281.47;;;-1.22;100.00
43818;BME280;29868;47.360;18.984;2022-12-08T00:29:58;100279.59;;;-1.11;100.00
43818;BME280;29868;47.360;18.984;2022-12-08T00:32:23;100289.31;;;-1.18;100.00
43818;BME280;29868;47.360;18.984;2022-12-08T00:34:48;100297.56;;;-1.23;100.00
43818;BME280;29868;47.360;18.984;2022-12-08T00:37:14;100288.31;;;-1.07;100.00
43818;BME280;29868;47.360;18.984;2022-12-08T00:39:39;100291.97;;;-0.89;100.00
43818;BME280;29868;47.360;18.984;2022-12-08T00:42:04;100297.03;;;-0.76;100.00
43818;BME280;29868;47.360;18.984;2022-12-08T00:44:39;100297.53;;;-0.81;100.00
43818;BME280;29868;47.360;18.984;2022-12-08T00:47:04;100295.34;;;-1.03;100.00
43818;BME280;29868;47.360;18.984;2022-12-08T00:49:29;100302.03;;;-1.05;100.00
43818;BME280;29868;47.360;18.984;2022-12-08T00:51:55;100289.50;;;-1.15;100.00
43818;BME280;29868;47.360;18.984;2022-12-08T00:54:21;100292.53;;;-1.08;100.00
43818;BME280;29868;47.360;18.984;2022-12-08T00:56:47;100294.41;;;-1.18;100.00
43818;BME280;29868;47.360;18.984;2022-12-08T00:59:12;100299.84;;;-1.27;100.00
43818;BME280;29868;47.360;18.984;2022-12-08T01:01:37;100294.47;;;-1.32;100.00
43818;BME280;29868;47.360;18.984;2022-12-08T01:04:07;100292.69;;;-1.33;100.00
43818;BME280;29868;47.360;18.984;2022-12-08T01:06:36;100286.84;;;-1.45;100.00
43818;BME280;29868;47.360;18.984;2022-12-08T01:09:02;100294.00;;;-1.53;100.00
43818;BME280;29868;47.360;18.984;2022-12-08T01:11:27;100295.28;;;-1.59;100.00
43818;BME280;29868;47.360;18.984;2022-12-08T01:13:53;100290.97;;;-1.47;100.00
43818;BME280;29868;47.360;18.984;2022-12-08T01:16:22;100296.19;;;-1.59;100.00
43818;BME280;29868;47.360;18.984;2022-12-08T01:18:47;100294.59;;;-1.57;100.00
43818;BME280;29868;47.360;18.984;2022-12-08T01:21:13;100293.34;;;-1.63;100.00
43818;BME280;29868;47.360;18.984;2022-12-08T01:23:38;100294.91;;;-1.65;100.00
43818;BME280;29868;47.360;18.984;2022-12-08T01:26:04;100285.81;;;-1.62;100.00
43818;BME280;29868;47.360;18.984;2022-12-08T01:28:30;100294.91;;;-1.65;100.00
43818;BME280;29868;47.360;18.984;2022-12-08T01:30:55;100289.22;;;-1.75;100.00
43818;BME280;29868;47.360;18.984;2022-12-08T01:33:20;100293.06;;;-1.81;100.00
43818;BME280;29868;47.360;18.984;2022-12-08T01:35:46;100292.47;;;-1.90;100.00
43818;BME280;29868;47.360;18.984;2022-12-08T01:38:11;100290.44;;;-1.96;100.00
43818;BME280;29868;47.360;18.984;2022-12-08T01:40:36;100295.13;;;-2.02;100.00
43818;BME280;29868;47.360;18.984;2022-12-08T01:43:01;100284.47;;;-1.97;100.00
43818;BME280;29868;47.360;18.984;2022-12-08T01:45:27;100284.53;;;-1.95;100.00
43818;BME280;29868;47.360;18.984;2022-12-08T01:47:54;100280.13;;;-1.98;100.00
43818;BME280;29868;47.360;18.984;2022-12-08T01:50:21;100273.59;;;-2.07;100.00
43818;BME280;29868;47.360;18.984;2022-12-08T01:52:48;100270.84;;;-2.10;100.00
43818;BME280;29868;47.360;18.984;2022-12-08T01:57:40;100270.25;;;-2.19;100.00
43818;BME280;29868;47.360;18.984;2022-12-08T02:00:08;100268.97;;;-2.26;100.00
43818;BME280;29868;47.360;18.984;2022-12-08T02:02:40;100267.91;;;-2.30;100.00
43818;BME280;29868;47.360;18.984;2022-12-08T02:05:09;100268.47;;;-2.21;100.00
43818;BME280;29868;47.360;18.984;2022-12-08T02:07:35;100261.56;;;-2.23;100.00
43818;BME280;29868;47.360;18.984;2022-12-08T02:10:02;100266.13;;;-2.17;100.00
43818;BME280;29868;47.360;18.984;2022-12-08T02:12:27;100260.16;;;-2.18;100.00
43818;BME280;29868;47.360;18.984;2022-12-08T15:21:19;99909.69;;;3.98;100.00
43818;BME280;29868;47.360;18.984;2022-12-08T15:23:52;99896.53;;;3.88;100.00
43818;BME280;29868;47.360;18.984;2022-12-08T15:26:19;99900.75;;;3.86;100.00
43818;BME280;29868;47.360;18.984;2022-12-08T15:28:45;99901.56;;;3.85;100.00
43818;BME280;29868;47.360;18.984;2022-12-08T15:31:10;99899.66;;;3.80;100.00
43818;BME280;29868;47.360;18.984;2022-12-08T15:33:35;99911.91;;;3.87;100.00
43818;BME280;29868;47.360;18.984;2022-12-08T15:36:01;99906.78;;;3.87;100.00
43818;BME280;29868;47.360;18.984;2022-12-08T15:38:27;99891.97;;;3.80;100.00
43818;BME280;29868;47.360;18.984;2022-12-08T15:40:53;99883.91;;;3.71;100.00
43818;BME280;29868;47.360;18.984;2022-12-08T15:43:19;99888.59;;;3.82;100.00
43818;BME280;29868;47.360;18.984;2022-12-08T15:45:44;99892.72;;;3.77;100.00
43818;BME280;29868;47.360;18.984;2022-12-08T15:48:14;99899.66;;;3.80;100.00
43818;BME280;29868;47.360;18.984;2022-12-08T15:50:40;99903.75;;;3.75;100.00
43818;BME280;29868;47.360;18.984;2022-12-08T15:53:06;99910.75;;;3.79;100.00
43818;BME280;29868;47.360;18.984;2022-12-08T15:55:32;99888.78;;;3.63;100.00
43818;BME280;29868;47.360;18.984;2022-12-08T15:57:58;99891.63;;;3.71;100.00
43818;BME280;29868;47.360;18.984;2022-12-08T16:00:25;99891.19;;;3.58;100.00
43818;BME280;29868;47.360;18.984;2022-12-08T16:02:51;99887.25;;;3.44;100.00
43818;BME280;29868;47.360;18.984;2022-12-08T16:05:16;99878.34;;;3.58;100.00
43818;BME280;29868;47.360;18.984;2022-12-08T16:07:41;99877.63;;;3.62;100.00
43818;BME280;29868;47.360;18.984;2022-12-08T16:10:08;99888.03;;;3.65;100.00
43818;BME280;29868;47.360;18.984;2022-12-08T16:12:34;99873.31;;;3.61;100.00
43818;BME280;29868;47.360;18.984;2022-12-08T16:15:18;99867.91;;;3.54;100.00
43818;BME280;29868;47.360;18.984;2022-12-08T16:17:43;99862.78;;;3.54;100.00
43818;BME280;29868;47.360;18.984;2022-12-08T16:20:14;99859.34;;;3.53;100.00
43818;BME280;29868;47.360;18.984;2022-12-08T16:22:40;99860.25;;;3.55;100.00
43818;BME280;29868;47.360;18.984;2022-12-08T16:25:06;99857.41;;;3.48;100.00
43818;BME280;29868;47.360;18.984;2022-12-08T16:27:32;99853.38;;;3.54;100.00
43818;BME280;29868;47.360;18.984;2022-12-08T16:29:58;99857.56;;;3.52;100.00
43818;BME280;29868;47.360;18.984;2022-12-08T16:32:26;99853.38;;;3.54;100.00
43818;BME280;29868;47.360;18.984;2022-12-08T16:34:52;99856.63;;;3.49;100.00
43818;BME280;29868;47.360;18.984;2022-12-08T16:37:19;99874.34;;;3.66;100.00
43818;BME280;29868;47.360;18.984;2022-12-08T16:39:45;99877.53;;;3.59;100.00
43818;BME280;29868;47.360;18.984;2022-12-08T16:42:13;99876.59;;;3.57;100.00
43818;BME280;29868;47.360;18.984;2022-12-08T16:44:58;99877.06;;;3.46;100.00
43818;BME280;29868;47.360;18.984;2022-12-08T16:47:23;99876.75;;;3.62;100.00
43818;BME280;29868;47.360;18.984;2022-12-08T16:49:49;99886.53;;;3.48;100.00
43818;BME280;29868;47.360;18.984;2022-12-08T16:52:14;99892.94;;;3.59;100.00
43818;BME280;29868;47.360;18.984;2022-12-08T16:54:40;99899.13;;;3.64;100.00
43818;BME280;29868;47.360;18.984;2022-12-08T16:57:05;99898.78;;;3.55;100.00
43818;BME280;29868;47.360;18.984;2022-12-08T16:59:30;99891.78;;;3.51;100.00
43818;BME280;29868;47.360;18.984;2022-12-08T17:01:56;99885.75;;;3.49;100.00
43818;BME280;29868;47.360;18.984;2022-12-08T17:04:21;99863.88;;;3.60;100.00
43818;BME280;29868;47.360;18.984;2022-12-08T17:06:46;99871.47;;;3.57;100.00
43818;BME280;29868;47.360;18.984;2022-12-08T17:09:11;99875.47;;;3.49;100.00
43818;BME280;29868;47.360;18.984;2022-12-08T17:11:37;99872.03;;;3.49;100.00
43818;BME280;29868;47.360;18.984;2022-12-08T17:14:02;99884.91;;;3.50;100.00
43818;BME280;29868;47.360;18.984;2022-12-08T17:16:27;99890.97;;;3.52;100.00
43818;BME280;29868;47.360;18.984;2022-12-08T17:18:53;99896.69;;;3.68;100.00
43818;BME280;29868;47.360;18.984;2022-12-08T17:21:18;99892.41;;;3.68;100.00
43818;BME280;29868;47.360;18.984;2022-12-08T17:23:44;99893.88;;;3.61;100.00
43818;BME280;29868;47.360;18.984;2022-12-08T17:26:09;99892.94;;;3.59;100.00
43818;BME280;29868;47.360;18.984;2022-12-08T17:28:35;99888.13;;;3.69;100.00
43818;BME280;29868;47.360;18.984;2022-12-08T17:31:00;99885.69;;;3.72;100.00
43818;BME280;29868;47.360;18.984;2022-12-08T17:33:27;99883.00;;;3.69;100.00
43818;BME280;29868;47.360;18.984;2022-12-08T17:35:53;99888.13;;;3.69;100.00
43818;BME280;29868;47.360;18.984;2022-12-08T17:38:19;99877.34;;;3.79;100.00
43818;BME280;29868;47.360;18.984;2022-12-08T17:40:44;99877.06;;;3.71;100.00
43818;BME280;29868;47.360;18.984;2022-12-08T17:43:11;99873.09;;;3.55;100.00
43818;BME280;29868;47.360;18.984;2022-12-08T17:45:44;99862.81;;;3.55;100.00
43818;BME280;29868;47.360;18.984;2022-12-08T17:48:09;99859.47;;;3.56;100.00
43818;BME280;29868;47.360;18.984;2022-12-08T17:50:41;99864.78;;;3.62;100.00
43818;BME280;29868;47.360;18.984;2022-12-08T17:53:07;99860.72;;;3.68;100.00
43818;BME280;29868;47.360;18.984;2022-12-08T17:55:33;99863.78;;;3.57;100.00
43818;BME280;29868;47.360;18.984;2022-12-08T17:57:59;99860.22;;;3.54;100.00
43818;BME280;29868;47.360;18.984;2022-12-08T18:00:24;99868.84;;;3.56;100.00
43818;BME280;29868;47.360;18.984;2022-12-08T18:02:49;99865.94;;;3.47;100.00
43818;BME280;29868;47.360;18.984;2022-12-08T18:05:15;99867.06;;;3.53;100.00
43818;BME280;29868;47.360;18.984;2022-12-08T18:07:40;99866.38;;;3.59;100.00
43818;BME280;29868;47.360;18.984;2022-12-08T18:10:05;99865.75;;;3.64;100.00
43818;BME280;29868;47.360;18.984;2022-12-08T18:12:31;99863.88;;;3.60;100.00
43818;BME280;29868;47.360;18.984;2022-12-08T18:14:56;99872.38;;;3.59;100.00
43818;BME280;29868;47.360;18.984;2022-12-08T18:17:21;99881.88;;;3.60;100.00
43818;BME280;29868;47.360;18.984;2022-12-08T18:19:46;99890.00;;;3.73;100.00
43818;BME280;29868;47.360;18.984;2022-12-08T18:22:12;99888.41;;;3.76;100.00
43818;BME280;29868;47.360;18.984;2022-12-08T18:24:37;99889.53;;;3.84;100.00
43818;BME280;29868;47.360;18.984;2022-12-08T18:27:02;99884.38;;;3.83;100.00
43818;BME280;29868;47.360;18.984;2022-12-08T18:29:28;99881.69;;;3.80;100.00
43818;BME280;29868;47.360;18.984;2022-12-08T18:31:53;99880.38;;;3.91;100.00
43818;BME280;29868;47.360;18.984;2022-12-08T18:34:18;99870.31;;;3.73;100.00
43818;BME280;29868;47.360;18.984;2022-12-08T18:36:43;99879.13;;;3.80;100.00
43818;BME280;29868;47.360;18.984;2022-12-08T18:39:42;99872.94;;;3.75;100.00
43818;BME280;29868;47.360;18.984;2022-12-08T18:42:01;99877.78;;;3.67;100.00
43818;BME280;29868;47.360;18.984;2022-12-08T18:44:46;99871.06;;;3.71;100.00
43818;BME280;29868;47.360;18.984;2022-12-08T18:47:11;99872.22;;;3.55;100.00
43818;BME280;29868;47.360;18.984;2022-12-08T18:49:37;99880.91;;;3.58;100.00
43818;BME280;29868;47.360;18.984;2022-12-08T18:52:02;99870.75;;;3.61;100.00
43818;BME280;29868;47.360;18.984;2022-12-08T18:54:27;99877.59;;;3.61;100.00
43818;BME280;29868;47.360;18.984;2022-12-08T18:56:52;99874.19;;;3.62;100.00
43818;BME280;29868;47.360;18.984;2022-12-08T18:59:18;99870.16;;;3.69;100.00
43818;BME280;29868;47.360;18.984;2022-12-08T19:01:47;99875.56;;;3.76;100.00
43818;BME280;29868;47.360;18.984;2022-12-08T19:04:13;99877.25;;;3.76;100.00
43818;BME280;29868;47.360;18.984;2022-12-08T19:06:38;99881.78;;;3.59;100.00
43818;BME280;29868;47.360;18.984;2022-12-08T19:09:04;99879.84;;;3.76;100.00
43818;BME280;29868;47.360;18.984;2022-12-08T19:11:30;99874.84;;;3.80;100.00
43818;BME280;29868;47.360;18.984;2022-12-08T19:13:55;99876.66;;;3.83;100.00
43818;BME280;29868;47.360;18.984;2022-12-08T19:16:20;99878.13;;;3.76;100.00
43818;BME280;29868;47.360;18.984;2022-12-08T19:18:46;99876.81;;;3.63;100.00
43818;BME280;29868;47.360;18.984;2022-12-08T19:21:11;99871.06;;;3.71;100.00
43818;BME280;29868;47.360;18.984;2022-12-08T19:23:37;99871.84;;;3.44;100.00
43818;BME280;29868;47.360;18.984;2022-12-08T19:26:02;99872.78;;;3.46;100.00
43818;BME280;29868;47.360;18.984;2022-12-08T19:28:28;99884.19;;;3.54;100.00
43818;BME280;29868;47.360;18.984;2022-12-08T19:30:53;99882.66;;;3.59;100.00
43818;BME280;29868;47.360;18.984;2022-12-08T19:33:19;99876.66;;;3.59;100.00
43818;BME280;29868;47.360;18.984;2022-12-08T19:35:44;99884.91;;;3.50;100.00
43818;BME280;29868;47.360;18.984;2022-12-08T19:38:10;99881.47;;;3.50;100.00
43818;BME280;29868;47.360;18.984;2022-12-08T19:40:36;99882.47;;;3.53;100.00
43818;BME280;29868;47.360;18.984;2022-12-08T19:43:20;99884.63;;;3.42;100.00
43818;BME280;29868;47.360;18.984;2022-12-08T19:46:05;99881.31;;;3.45;100.00
43818;BME280;29868;47.360;18.984;2022-12-08T19:48:31;99876.22;;;3.47;100.00
43818;BME280;29868;47.360;18.984;2022-12-08T19:50:56;99868.94;;;3.59;100.00
43818;BME280;29868;47.360;18.984;2022-12-08T19:53:21;99880.81;;;3.55;100.00
43818;BME280;29868;47.360;18.984;2022-12-08T19:55:48;99883.56;;;3.60;100.00
43818;BME280;29868;47.360;18.984;2022-12-08T19:58:13;99879.19;;;3.57;100.00
43818;BME280;29868;47.360;18.984;2022-12-08T20:00:39;99874.75;;;3.53;100.00
43818;BME280;29868;47.360;18.984;2022-12-08T20:03:05;99875.47;;;3.49;100.00
43818;BME280;29868;47.360;18.984;2022-12-08T20:05:31;99873.06;;;3.30;100.00
43818;BME280;29868;47.360;18.984;2022-12-08T20:07:57;99859.06;;;3.46;100.00
43818;BME280;29868;47.360;18.984;2022-12-08T20:10:32;99851.03;;;3.36;100.00
43818;BME280;29868;47.360;18.984;2022-12-08T20:13:00;99853.38;;;3.30;100.00
43818;BME280;29868;47.360;18.984;2022-12-08T20:15:44;99854.44;;;3.13;100.00
43818;BME280;29868;47.360;18.984;2022-12-08T20:18:10;99842.97;;;3.03;100.00
43818;BME280;29868;47.360;18.984;2022-12-08T20:20:36;99851.88;;;2.90;100.00
43818;BME280;29868;47.360;18.984;2022-12-08T20:23:02;99856.97;;;2.89;100.00
43818;BME280;29868;47.360;18.984;2022-12-08T20:25:27;99859.72;;;2.93;100.00
43818;BME280;29868;47.360;18.984;2022-12-08T20:27:52;99863.50;;;3.03;100.00
43818;BME280;29868;47.360;18.984;2022-12-08T20:30:17;99862.91;;;3.10;100.00
43818;BME280;29868;47.360;18.984;2022-12-08T20:32:43;99852.63;;;3.10;100.00
43818;BME280;29868;47.360;18.984;2022-12-08T20:35:08;99863.84;;;3.12;100.00
43818;BME280;29868;47.360;18.984;2022-12-08T20:37:33;99868.16;;;3.13;100.00
43818;BME280;29868;47.360;18.984;2022-12-08T20:39:59;99863.00;;;3.13;100.00
43818;BME280;29868;47.360;18.984;2022-12-08T20:42:24;99858.28;;;3.24;100.00
43818;BME280;29868;47.360;18.984;2022-12-08T20:44:49;99858.16;;;3.21;100.00
43818;BME280;29868;47.360;18.984;2022-12-08T20:47:15;99873.69;;;3.24;100.00
43818;BME280;29868;47.360;18.984;2022-12-08T20:49:40;99874.03;;;3.33;100.00
43818;BME280;29868;47.360;18.984;2022-12-08T20:52:06;99876.53;;;3.32;100.00
43818;BME280;29868;47.360;18.984;2022-12-08T20:54:31;99874.09;;;3.35;100.00
43818;BME280;29868;47.360;18.984;2022-12-08T20:56:57;99881.78;;;3.35;100.00
43818;BME280;29868;47.360;18.984;2022-12-08T20:59:23;99879.50;;;3.42;100.00
43818;BME280;29868;47.360;18.984;2022-12-08T21:01:50;99883.19;;;3.27;100.00
43818;BME280;29868;47.360;18.984;2022-12-08T21:04:16;99884.19;;;3.30;100.00
43818;BME280;29868;47.360;18.984;2022-12-08T21:06:41;99886.09;;;3.36;100.00
43818;BME280;29868;47.360;18.984;2022-12-08T21:09:06;99889.38;;;3.32;100.00
43818;BME280;29868;47.360;18.984;2022-12-08T21:11:32;99884.31;;;3.33;100.00
43818;BME280;29868;47.360;18.984;2022-12-08T21:13:58;99890.13;;;3.29;100.00
